createdAt,value
2022-12-05T00:01:23.123Z,95.92
2022-12-05T00:03:52.113Z,95.60
2022-12-05T00:06:19.981Z,94.61
2022-12-05T00:08:47.317Z,95.36
2022-12-05T00:11:16.529Z,95.00
2022-12-05T00:13:44.533Z,96.11
2022-12-05T00:16:13.544Z,95.88
2022-12-05T00:18:40.878Z,96.68
2022-12-05T00:21:08.403Z,97.08
2022-12-05T00:26:13.254Z,96.43
2022-12-05T00:28:40.642Z,95.95
2022-12-05T00:31:16.564Z,95.48
2022-12-05T00:33:44.679Z,96.52
2022-12-05T00:36:19.220Z,97.29
2022-12-05T00:38:46.071Z,95.74
2022-12-05T00:41:21.666Z,95.03
2022-12-05T00:43:48.339Z,94.73
2022-12-05T00:46:18.235Z,95.43
2022-12-05T00:48:45.475Z,96.77
2022-12-05T00:53:52.341Z,94.54
2022-12-05T00:56:22.327Z,95.45
2022-12-05T00:58:51.134Z,94.43
2022-12-05T01:01:24.590Z,94.20
2022-12-05T01:03:54.187Z,95.70
2022-12-05T01:06:22.101Z,95.71
2022-12-05T01:08:48.846Z,95.19
2022-12-05T01:11:19.791Z,94.77
2022-12-05T01:13:47.005Z,94.29
2022-12-05T01:16:26.326Z,93.61
2022-12-05T01:18:53.380Z,93.12
2022-12-05T01:21:21.240Z,92.77
2022-12-05T01:23:49.670Z,92.92
2022-12-05T01:26:18.132Z,94.54
2022-12-05T01:28:45.933Z,94.94
2022-12-05T01:31:26.078Z,93.95
2022-12-05T01:33:55.244Z,93.97
2022-12-05T01:36:22.932Z,95.02
2022-12-05T01:38:50.218Z,94.22
2022-12-05T01:41:20.926Z,93.63
2022-12-05T02:00:12.818Z,92.31
2022-12-05T02:02:54.320Z,92.25
2022-12-05T02:08:10.490Z,93.69
2022-12-05T02:10:43.371Z,93.47
2022-12-05T02:13:28.258Z,93.33
2022-12-05T02:16:00.562Z,92.93
2022-12-05T02:18:52.432Z,93.36
2022-12-05T02:21:46.740Z,92.96
2022-12-05T02:24:47.001Z,93.31
2022-12-05T02:27:58.640Z,92.75
2022-12-05T02:30:26.802Z,93.25
2022-12-05T02:33:21.458Z,93.79
2022-12-05T02:36:05.437Z,92.29
2022-12-05T02:38:34.659Z,92.50
2022-12-05T02:41:27.049Z,92.28
2022-12-05T02:44:02.166Z,93.23
2022-12-05T02:46:32.709Z,94.40
2022-12-05T02:49:04.734Z,94.24
2022-12-05T02:51:35.952Z,94.27
2022-12-05T02:54:08.413Z,93.66
2022-12-05T02:56:36.623Z,93.60
2022-12-05T02:59:04.109Z,93.33
2022-12-05T03:01:32.791Z,93.39
2022-12-05T03:06:45.689Z,93.61
2022-12-05T03:09:18.893Z,93.09
2022-12-05T03:12:08.936Z,93.31
2022-12-05T03:17:21.902Z,94.25
2022-12-05T03:19:59.154Z,94.50
2022-12-05T03:22:41.095Z,94.21
2022-12-05T03:25:09.180Z,94.67
2022-12-05T03:28:02.586Z,95.38
2022-12-05T03:30:31.562Z,94.88
2022-12-05T03:33:05.938Z,94.43
2022-12-05T03:36:03.366Z,94.45
2022-12-05T03:38:45.793Z,94.44
2022-12-05T03:44:01.384Z,93.63
2022-12-05T03:46:37.954Z,93.23
2022-12-05T03:49:07.263Z,93.69
2022-12-05T03:51:50.093Z,95.04
2022-12-05T03:54:27.767Z,95.24
2022-12-05T03:57:03.815Z,95.02
2022-12-05T03:59:40.049Z,94.78
2022-12-05T04:02:12.898Z,95.35
2022-12-05T04:04:57.578Z,94.91
2022-12-05T04:10:06.391Z,93.82
2022-12-05T04:15:50.946Z,93.56
2022-12-05T04:18:21.295Z,93.98
2022-12-05T04:21:07.968Z,94.39
2022-12-05T04:23:36.022Z,94.92
2022-12-05T04:26:31.434Z,95.83
2022-12-05T04:29:09.360Z,96.20
2022-12-05T04:31:42.653Z,96.39
2022-12-05T04:34:13.906Z,96.18
2022-12-05T04:36:57.887Z,96.54
2022-12-05T04:39:43.006Z,96.39
2022-12-05T04:42:18.631Z,94.94
2022-12-05T04:44:54.123Z,94.30
2022-12-05T04:47:26.213Z,95.79
2022-12-05T04:49:54.725Z,94.87
2022-12-05T04:52:22.571Z,96.54
2022-12-05T04:55:02.421Z,96.01
2022-12-05T04:57:36.855Z,96.12
2022-12-05T05:02:50.575Z,97.65
2022-12-05T05:05:19.707Z,97.66
2022-12-05T05:07:50.171Z,97.65
2022-12-05T05:10:22.111Z,97.68
2022-12-05T05:12:48.796Z,95.66
2022-12-05T05:15:15.517Z,95.51
2022-12-05T05:17:42.144Z,94.47
2022-12-05T05:20:24.047Z,96.51
2022-12-05T05:22:52.450Z,94.99
2022-12-05T05:25:19.771Z,94.04
2022-12-05T05:27:52.031Z,94.17
2022-12-05T05:30:20.100Z,94.16
2022-12-05T05:32:47.364Z,93.42
2022-12-05T05:37:46.420Z,94.54
2022-12-05T05:40:14.338Z,93.91
2022-12-05T05:42:46.655Z,94.13
2022-12-05T05:45:14.912Z,94.14
2022-12-05T05:47:42.549Z,95.59
2022-12-05T05:50:12.983Z,96.44
2022-12-05T05:52:43.058Z,95.95
2022-12-05T05:55:10.299Z,96.28
2022-12-05T06:00:17.787Z,98.26
2022-12-05T06:02:44.642Z,99.01
2022-12-05T06:05:11.424Z,97.36
2022-12-05T06:07:38.117Z,97.03
2022-12-05T06:10:05.266Z,97.12
2022-12-05T06:12:32.191Z,96.70
2022-12-05T06:14:59.039Z,96.61
2022-12-05T06:17:25.776Z,96.69
2022-12-05T06:19:52.504Z,96.65
2022-12-05T06:22:19.174Z,96.66
2022-12-05T06:24:45.918Z,95.83
2022-12-05T06:27:12.613Z,96.04
2022-12-05T06:29:39.453Z,94.98
2022-12-05T06:32:06.485Z,94.88
2022-12-05T06:34:33.297Z,95.69
2022-12-05T06:37:00.895Z,95.38
2022-12-05T06:39:28.237Z,95.43
2022-12-05T06:41:54.897Z,94.77
2022-12-05T06:44:22.161Z,95.00
2022-12-05T06:46:49.328Z,95.60
2022-12-05T06:49:16.035Z,94.30
2022-12-05T06:51:42.665Z,94.86
2022-12-05T06:54:09.378Z,95.19
2022-12-05T06:56:36.040Z,94.53
2022-12-05T06:59:02.720Z,94.92
2022-12-05T07:01:38.843Z,94.16
2022-12-05T07:04:08.678Z,97.01
2022-12-05T07:06:35.703Z,94.63
2022-12-05T07:09:03.411Z,94.58
2022-12-05T07:11:30.057Z,94.75
2022-12-05T07:13:57.080Z,95.10
2022-12-05T07:16:24.248Z,95.71
2022-12-05T07:18:51.145Z,94.71
2022-12-05T07:21:17.975Z,94.69
2022-12-05T07:23:46.308Z,94.78
2022-12-05T07:26:16.003Z,95.70
2022-12-05T07:28:42.850Z,95.98
2022-12-05T07:31:12.747Z,96.01
2022-12-05T07:33:39.741Z,96.37
2022-12-05T07:36:09.538Z,97.44
2022-12-05T07:38:36.617Z,97.34
2022-12-05T07:41:19.641Z,97.62
2022-12-05T07:43:46.387Z,96.99
2022-12-05T07:46:13.727Z,97.61
2022-12-05T07:48:40.762Z,97.59
2022-12-05T07:51:09.641Z,97.91
2022-12-05T07:53:37.121Z,97.55
2022-12-05T07:56:06.205Z,97.52
2022-12-05T07:58:33.693Z,98.34
2022-12-05T08:01:17.029Z,97.71
2022-12-05T08:03:44.319Z,97.37
2022-12-05T08:06:20.354Z,97.07
2022-12-05T08:08:50.148Z,97.01
2022-12-05T08:11:25.410Z,95.73
2022-12-05T08:13:53.498Z,96.08
2022-12-05T08:16:23.565Z,95.69
2022-12-05T08:18:55.158Z,95.47
2022-12-05T08:21:21.841Z,94.80
2022-12-05T08:23:48.564Z,94.06
2022-12-05T08:26:18.403Z,94.32
2022-12-05T08:28:45.466Z,94.72
2022-12-05T08:31:15.688Z,95.09
2022-12-05T08:33:42.828Z,95.39
2022-12-05T08:36:11.949Z,95.13
2022-12-05T08:38:39.320Z,95.67
2022-12-05T08:41:08.724Z,95.70
2022-12-05T08:43:35.759Z,95.43
2022-12-05T08:46:02.838Z,95.36
2022-12-05T08:48:30.546Z,96.13
2022-12-05T08:50:57.674Z,95.81
2022-12-05T08:53:24.651Z,95.88
2022-12-05T08:55:51.404Z,95.76
2022-12-05T08:58:18.084Z,94.62
2022-12-05T09:00:44.742Z,93.48
2022-12-05T09:03:12.326Z,93.81
2022-12-05T09:08:11.417Z,93.50
2022-12-05T09:10:38.633Z,94.06
2022-12-05T09:13:05.264Z,94.17
2022-12-05T09:15:31.883Z,94.05
2022-12-05T09:20:39.633Z,94.33
2022-12-05T09:23:06.281Z,93.47
2022-12-05T09:25:32.906Z,94.11
2022-12-05T09:27:59.598Z,93.96
2022-12-05T09:30:26.212Z,94.49
2022-12-05T09:32:52.813Z,94.23
2022-12-05T09:35:19.567Z,94.20
2022-12-05T09:37:46.191Z,94.63
2022-12-05T09:40:19.017Z,95.47
2022-12-05T09:43:02.350Z,93.55
2022-12-05T09:45:40.062Z,93.99
2022-12-05T09:48:15.805Z,95.28
2022-12-05T09:50:47.299Z,95.16
2022-12-05T09:53:22.708Z,94.61
2022-12-05T09:56:26.770Z,94.59
2022-12-05T09:58:55.622Z,93.94
2022-12-05T10:01:39.312Z,94.33
2022-12-05T10:04:17.821Z,94.05
2022-12-05T10:07:02.236Z,93.97
2022-12-05T10:09:39.768Z,94.25
2022-12-05T10:12:28.115Z,94.64
2022-12-05T10:15:22.436Z,93.38
2022-12-05T10:18:10.827Z,93.33
2022-12-05T10:20:53.624Z,93.25
2022-12-05T10:29:18.799Z,94.51
2022-12-05T10:39:37.201Z,96.15
2022-12-05T10:42:05.263Z,97.29
2022-12-05T10:44:33.597Z,95.18
2022-12-05T10:47:01.820Z,95.80
2022-12-05T10:49:29.870Z,96.07
2022-12-05T10:51:56.493Z,97.26
2022-12-05T10:54:30.674Z,98.35
2022-12-05T10:59:47.337Z,97.29
2022-12-05T11:02:28.529Z,95.89
2022-12-05T11:04:56.579Z,95.25
2022-12-05T11:10:27.347Z,97.10
2022-12-05T11:12:58.038Z,98.62
2022-12-05T11:15:27.841Z,99.45
2022-12-05T11:17:57.021Z,98.79
2022-12-05T11:20:23.643Z,97.86
2022-12-05T11:22:55.183Z,98.31
2022-12-05T11:25:30.542Z,98.80
2022-12-05T11:28:01.410Z,98.45
2022-12-05T11:30:29.798Z,99.23
2022-12-05T11:33:35.935Z,97.76
2022-12-05T11:36:25.237Z,97.77
2022-12-05T11:38:52.783Z,97.73
2022-12-05T11:41:34.531Z,97.11
2022-12-05T11:44:19.781Z,96.78
2022-12-05T11:47:04.800Z,95.25
2022-12-05T11:50:13.186Z,94.28
2022-12-05T11:52:54.894Z,95.80
2022-12-05T11:55:37.670Z,95.76
2022-12-05T11:58:38.558Z,94.25
2022-12-05T12:01:38.786Z,94.99
2022-12-05T12:04:33.853Z,95.59
2022-12-05T12:07:37.161Z,94.45
2022-12-05T12:10:24.801Z,94.88
2022-12-05T12:13:12.633Z,95.95
2022-12-05T12:15:46.865Z,96.05
2022-12-05T12:18:31.499Z,94.40
2022-12-05T12:27:47.186Z,94.10
2022-12-05T12:30:28.824Z,95.44
2022-12-05T12:33:09.061Z,95.83
2022-12-05T12:35:55.612Z,95.68
2022-12-05T12:38:37.087Z,95.06
2022-12-05T12:41:37.575Z,94.42
2022-12-05T12:44:25.754Z,94.67
2022-12-05T12:47:03.072Z,93.95
2022-12-05T12:50:03.054Z,94.52
2022-12-05T12:52:45.550Z,95.05
2022-12-05T12:58:22.327Z,93.26
2022-12-05T13:01:01.434Z,96.14
2022-12-05T13:03:51.596Z,92.69
2022-12-05T13:06:35.476Z,92.80
2022-12-05T13:09:09.968Z,91.93
2022-12-05T13:11:41.046Z,91.39
2022-12-05T13:14:14.719Z,92.14
2022-12-05T13:16:46.389Z,91.57
2022-12-05T13:19:24.849Z,91.97
2022-12-05T13:24:27.931Z,93.33
2022-12-05T13:27:00.333Z,94.12
2022-12-05T13:29:34.152Z,93.61
2022-12-05T13:32:05.609Z,92.91
2022-12-05T13:34:35.371Z,92.27
2022-12-05T13:37:30.251Z,93.24
2022-12-05T13:40:17.230Z,94.69
2022-12-05T13:42:44.668Z,93.46
2022-12-05T13:48:11.941Z,93.54
2022-12-05T13:50:49.590Z,93.42
2022-12-05T13:53:46.373Z,93.09
2022-12-05T13:56:12.960Z,93.83
2022-12-05T13:58:53.627Z,94.89
2022-12-05T14:03:59.712Z,95.01
2022-12-05T14:06:35.184Z,95.40
2022-12-05T14:11:34.342Z,95.81
2022-12-05T14:14:04.867Z,95.64
2022-12-05T14:16:31.993Z,95.39
2022-12-05T14:19:12.939Z,95.70
2022-12-05T14:22:17.487Z,96.65
2022-12-05T14:25:10.336Z,96.42
2022-12-05T14:27:53.369Z,96.28
2022-12-05T14:30:31.954Z,96.08
2022-12-05T14:33:01.977Z,96.95
2022-12-05T14:35:32.151Z,97.10
2022-12-05T14:38:02.972Z,98.78
2022-12-05T14:40:35.389Z,97.42
2022-12-05T14:43:21.282Z,97.55
2022-12-05T14:45:50.779Z,97.68
2022-12-05T14:48:17.522Z,98.34
2022-12-05T14:50:45.526Z,98.33
2022-12-05T14:53:18.059Z,98.65
2022-12-05T14:55:46.499Z,97.89
2022-12-05T14:58:32.773Z,97.70
2022-12-05T15:01:03.594Z,97.28
2022-12-05T15:03:35.056Z,97.80
2022-12-05T15:11:30.578Z,97.70
2022-12-05T15:19:44.834Z,98.87
2022-12-05T15:24:53.909Z,99.84
2022-12-05T15:27:20.649Z,99.31
2022-12-05T15:29:47.625Z,99.40
2022-12-05T15:32:21.584Z,98.09
2022-12-05T15:35:01.787Z,98.74
2022-12-05T15:37:31.635Z,97.81
2022-12-05T15:40:01.174Z,98.03
2022-12-05T15:42:36.308Z,98.09
2022-12-05T15:45:17.802Z,98.76
2022-12-05T15:47:49.260Z,98.64
2022-12-05T15:50:20.879Z,97.76
2022-12-05T15:55:35.161Z,97.66
2022-12-05T15:58:12.849Z,98.19
2022-12-05T16:00:43.216Z,97.14
2022-12-05T16:03:20.366Z,96.33
2022-12-05T16:05:54.619Z,98.15
2022-12-05T16:08:24.636Z,96.96
2022-12-05T16:10:52.039Z,96.90
2022-12-05T16:13:23.848Z,97.44
2022-12-05T16:15:53.735Z,98.39
2022-12-05T16:21:37.860Z,97.86
2022-12-05T16:24:27.442Z,98.38
2022-12-05T16:27:14.437Z,98.49
2022-12-05T16:29:41.747Z,97.80
2022-12-05T16:32:24.811Z,99.00
2022-12-05T16:34:51.818Z,99.55
2022-12-05T16:37:24.772Z,98.92
2022-12-05T16:39:52.008Z,99.34
2022-12-05T16:42:25.213Z,100.00
2022-12-05T16:47:41.757Z,99.66
2022-12-05T16:50:24.115Z,100.00
2022-12-05T16:52:51.368Z,100.00
2022-12-05T16:55:18.051Z,100.00
2022-12-05T16:57:44.742Z,100.00
2022-12-05T17:00:15.404Z,100.00
2022-12-05T17:02:42.219Z,100.00
2022-12-05T17:05:15.126Z,100.00
2022-12-05T17:07:41.901Z,100.00
2022-12-05T17:10:08.934Z,99.13
2022-12-05T17:12:35.955Z,99.79
2022-12-05T17:15:02.818Z,99.78
2022-12-05T17:17:29.497Z,98.72
2022-12-05T17:19:56.174Z,100.00
2022-12-05T17:22:23.400Z,100.00
2022-12-05T17:24:50.112Z,100.00
2022-12-05T17:27:16.773Z,99.91
2022-12-05T17:29:43.418Z,99.91
2022-12-05T17:32:10.917Z,99.84
2022-12-05T17:34:37.465Z,100.00
2022-12-05T17:37:04.128Z,100.00
2022-12-05T17:39:30.707Z,99.58
2022-12-05T17:41:57.413Z,100.00
2022-12-05T17:44:24.382Z,100.00
2022-12-05T17:46:51.266Z,100.00
2022-12-05T17:49:18.537Z,100.00
2022-12-05T17:52:13.449Z,100.00
2022-12-05T17:54:32.513Z,100.00
2022-12-05T17:56:59.208Z,100.00
2022-12-05T17:59:25.962Z,100.00
2022-12-05T18:01:52.613Z,100.00
2022-12-05T18:04:23.080Z,100.00
2022-12-05T18:06:50.077Z,99.67
2022-12-05T18:09:16.800Z,100.00
2022-12-05T18:11:43.593Z,100.00
2022-12-05T18:14:10.572Z,100.00
2022-12-05T18:16:37.272Z,100.00
2022-12-05T18:19:04.183Z,100.00
2022-12-05T18:21:30.942Z,100.00
2022-12-05T18:23:57.602Z,100.00
2022-12-05T18:26:24.450Z,100.00
2022-12-05T18:28:53.975Z,100.00
2022-12-05T18:31:20.760Z,100.00
2022-12-05T18:33:47.594Z,100.00
2022-12-05T18:36:17.394Z,100.00
2022-12-05T18:38:50.650Z,100.00
2022-12-05T18:41:17.452Z,100.00
2022-12-05T18:43:44.165Z,100.00
2022-12-05T18:46:10.969Z,100.00
2022-12-05T18:51:19.028Z,100.00
2022-12-05T18:53:52.663Z,100.00
2022-12-05T18:56:24.377Z,100.00
2022-12-05T18:58:58.894Z,100.00
2022-12-05T19:01:27.213Z,100.00
2022-12-05T19:03:54.650Z,100.00
2022-12-05T19:06:23.894Z,100.00
2022-12-05T19:08:57.355Z,100.00
2022-12-05T19:11:26.372Z,100.00
2022-12-05T19:13:57.861Z,100.00
2022-12-05T19:16:25.328Z,100.00
2022-12-05T19:18:56.742Z,100.00
2022-12-05T19:21:25.390Z,100.00
2022-12-05T19:23:52.904Z,100.00
2022-12-05T19:26:19.682Z,100.00
2022-12-05T19:28:46.363Z,100.00
2022-12-05T19:31:15.490Z,100.00
2022-12-05T19:33:45.151Z,100.00
2022-12-05T19:36:18.534Z,100.00
2022-12-05T19:38:46.936Z,100.00
2022-12-05T19:41:16.067Z,100.00
2022-12-05T19:43:44.908Z,100.00
2022-12-05T19:46:13.340Z,100.00
2022-12-05T19:48:40.019Z,100.00
2022-12-05T19:51:07.006Z,100.00
2022-12-05T19:53:36.642Z,100.00
2022-12-05T19:56:09.069Z,100.00
2022-12-05T19:58:36.644Z,100.00
2022-12-05T20:01:19.951Z,100.00
2022-12-05T20:03:52.336Z,100.00
2022-12-05T20:08:54.002Z,100.00
2022-12-05T20:11:24.935Z,100.00
2022-12-05T20:13:53.587Z,100.00
2022-12-05T20:16:21.957Z,100.00
2022-12-05T20:18:49.817Z,100.00
2022-12-05T20:21:19.730Z,100.00
2022-12-05T20:23:46.650Z,100.00
2022-12-05T20:26:22.169Z,99.55
2022-12-05T20:28:49.139Z,100.00
2022-12-05T20:31:18.947Z,100.00
2022-12-05T20:33:46.208Z,100.00
2022-12-05T20:36:15.350Z,100.00
2022-12-05T20:38:42.971Z,99.42
2022-12-05T20:41:15.896Z,100.00
2022-12-05T20:43:47.598Z,100.00
2022-12-05T20:46:17.710Z,100.00
2022-12-05T20:48:46.075Z,99.78
2022-12-05T20:51:15.487Z,98.99
2022-12-05T20:53:43.879Z,99.85
2022-12-05T20:56:16.301Z,99.93
2022-12-05T20:58:51.170Z,100.00
2022-12-05T21:01:20.090Z,100.00
2022-12-05T21:03:49.837Z,100.00
2022-12-05T21:06:25.518Z,100.00
2022-12-05T21:08:52.969Z,100.00
2022-12-05T21:11:20.239Z,100.00
2022-12-05T21:13:46.911Z,100.00
2022-12-05T21:16:17.128Z,100.00
2022-12-05T21:18:44.353Z,100.00
2022-12-05T21:21:22.520Z,100.00
2022-12-05T21:23:54.054Z,100.00
2022-12-05T21:26:23.259Z,100.00
2022-12-05T21:28:50.071Z,99.66
2022-12-05T21:31:20.340Z,99.88
2022-12-05T21:33:49.834Z,100.00
2022-12-05T21:36:17.129Z,100.00
2022-12-05T21:38:43.860Z,100.00
2022-12-05T21:41:10.592Z,100.00
2022-12-05T21:43:37.290Z,100.00
2022-12-05T21:46:05.180Z,100.00
2022-12-05T21:48:32.690Z,100.00
2022-12-05T21:50:59.768Z,100.00
2022-12-05T21:53:26.578Z,100.00
2022-12-05T21:56:08.694Z,100.00
2022-12-05T21:58:40.727Z,100.00
2022-12-05T22:01:09.916Z,100.00
2022-12-05T22:03:36.660Z,100.00
2022-12-05T22:06:06.405Z,100.00
2022-12-05T22:08:34.042Z,100.00
2022-12-05T22:11:07.719Z,100.00
2022-12-05T22:13:36.088Z,100.00
2022-12-05T22:16:04.477Z,100.00
2022-12-05T22:18:31.476Z,100.00
2022-12-05T22:21:03.385Z,100.00
2022-12-05T22:23:30.419Z,100.00
2022-12-05T22:26:05.145Z,100.00
2022-12-05T22:28:33.049Z,100.00
2022-12-05T22:31:01.625Z,100.00
2022-12-05T22:33:29.006Z,100.00
2022-12-05T22:35:59.016Z,100.00
2022-12-05T22:38:28.008Z,100.00
2022-12-05T22:41:00.579Z,100.00
2022-12-05T22:43:29.485Z,100.00
2022-12-05T22:45:56.165Z,100.00
2022-12-05T22:48:23.847Z,100.00
2022-12-05T22:50:52.810Z,100.00
2022-12-05T22:53:24.189Z,100.00
2022-12-05T22:55:51.770Z,100.00
2022-12-05T22:58:19.170Z,100.00
2022-12-05T23:00:46.450Z,100.00
2022-12-05T23:03:13.412Z,100.00
2022-12-05T23:05:41.900Z,100.00
2022-12-05T23:08:08.682Z,100.00
2022-12-05T23:10:35.400Z,100.00
2022-12-05T23:15:39.941Z,100.00
2022-12-05T23:18:06.610Z,100.00
2022-12-05T23:20:33.772Z,100.00
2022-12-05T23:23:00.405Z,100.00
2022-12-05T23:25:27.069Z,100.00
2022-12-05T23:27:53.717Z,100.00
2022-12-05T23:30:20.490Z,100.00
2022-12-05T23:32:47.139Z,100.00
2022-12-05T23:35:13.827Z,100.00
2022-12-05T23:37:40.461Z,100.00
2022-12-05T23:40:07.793Z,100.00
2022-12-05T23:42:34.741Z,100.00
2022-12-05T23:45:01.366Z,100.00
2022-12-05T23:47:28.002Z,100.00
2022-12-05T23:49:54.639Z,100.00
2022-12-05T23:52:21.284Z,100.00
2022-12-05T23:54:47.916Z,100.00
2022-12-05T23:57:17.524Z,100.00
2022-12-05T23:59:45.209Z,100.00
